createdAt,value
2022-10-22T00:05:14.966Z,6.93
2022-10-22T00:10:39.467Z,6.68
2022-10-22T00:16:05.175Z,5.88
2022-10-22T00:21:29.431Z,6.90
2022-10-22T00:26:54.911Z,6.82
2022-10-22T00:32:20.043Z,7.38
2022-10-22T00:37:45.028Z,6.78
2022-10-22T00:43:12.713Z,7.43
2022-10-22T00:48:39.441Z,7.85
2022-10-22T00:54:09.936Z,6.60
2022-10-22T00:59:34.505Z,7.20
2022-10-22T01:05:00.551Z,7.15
2022-10-22T01:10:43.042Z,7.45
2022-10-22T01:16:12.902Z,7.30
2022-10-22T01:21:45.725Z,7.07
2022-10-22T01:27:25.561Z,5.80
2022-10-22T01:32:55.819Z,6.03
2022-10-22T01:38:24.664Z,6.40
2022-10-22T01:43:49.530Z,6.43
2022-10-22T01:49:26.035Z,6.70
2022-10-22T01:55:00.550Z,5.32
2022-10-22T02:00:29.696Z,5.75
2022-10-22T02:06:00.864Z,5.03
2022-10-22T02:11:25.585Z,5.70
2022-10-22T02:16:51.628Z,5.88
2022-10-22T02:22:17.741Z,6.15
2022-10-22T02:27:46.506Z,5.63
2022-10-22T02:33:14.425Z,6.10
2022-10-22T02:38:42.362Z,5.82
2022-10-22T02:44:10.607Z,6.07
2022-10-22T02:49:34.918Z,5.90
2022-10-22T02:55:00.887Z,5.68
2022-10-22T03:00:24.910Z,5.90
2022-10-22T03:05:48.891Z,6.57
2022-10-22T03:11:15.718Z,6.82
2022-10-22T03:16:40.272Z,6.78
2022-10-22T03:22:09.011Z,7.40
2022-10-22T03:27:36.613Z,7.97
2022-10-22T03:33:00.903Z,8.93
2022-10-22T03:38:25.144Z,6.47
2022-10-22T03:43:53.063Z,7.57
2022-10-22T03:49:17.064Z,6.97
2022-10-22T03:54:42.400Z,8.65
2022-10-22T04:00:10.120Z,8.27
2022-10-22T04:05:35.466Z,8.52
2022-10-22T04:10:59.810Z,8.77
2022-10-22T04:16:30.928Z,8.88
2022-10-22T04:21:55.179Z,8.35
2022-10-22T04:27:19.434Z,7.32
2022-10-22T04:32:45.605Z,6.85
2022-10-22T04:38:09.901Z,10.70
2022-10-22T04:43:33.902Z,9.70
2022-10-22T04:49:00.017Z,9.25
2022-10-22T04:54:28.969Z,8.68
2022-10-22T04:59:57.637Z,7.80
2022-10-22T05:05:24.070Z,7.55
2022-10-22T05:10:50.112Z,7.40
2022-10-22T05:16:15.128Z,7.40
2022-10-22T05:21:41.155Z,8.43
2022-10-22T05:27:05.612Z,8.95
2022-10-22T05:32:29.700Z,8.95
2022-10-22T05:43:21.769Z,8.13
2022-10-22T05:48:49.561Z,8.50
2022-10-22T05:54:18.697Z,10.70
2022-10-22T05:59:43.732Z,8.95
2022-10-22T06:05:08.470Z,8.43
2022-10-22T06:10:34.983Z,8.85
2022-10-22T06:16:01.566Z,9.63
2022-10-22T06:21:26.186Z,7.45
2022-10-22T06:26:52.618Z,9.95
2022-10-22T06:32:16.849Z,9.20
2022-10-22T06:37:42.276Z,9.40
2022-10-22T06:43:08.177Z,12.43
2022-10-22T06:48:33.441Z,9.88
2022-10-22T06:53:58.555Z,9.65
2022-10-22T06:59:25.076Z,8.32
2022-10-22T07:04:49.981Z,5.03
2022-10-22T07:10:14.012Z,3.58
2022-10-22T07:15:39.431Z,3.33
2022-10-22T07:21:08.503Z,4.03
2022-10-22T07:26:32.847Z,4.05
2022-10-22T07:31:58.044Z,3.20
2022-10-22T07:37:22.272Z,2.58
2022-10-22T07:42:46.644Z,3.03
2022-10-22T07:48:12.491Z,3.03
2022-10-22T07:53:37.038Z,3.15
2022-10-22T08:04:32.139Z,3.17
2022-10-22T08:09:56.546Z,3.80
2022-10-22T08:15:22.300Z,3.42
2022-10-22T08:20:47.875Z,3.22
2022-10-22T08:26:12.101Z,3.47
2022-10-22T08:31:36.645Z,3.50
2022-10-22T08:37:02.248Z,3.60
2022-10-22T08:43:01.401Z,3.45
2022-10-22T08:48:42.888Z,3.10
2022-10-22T08:54:20.225Z,2.60
2022-10-22T08:59:49.001Z,2.38
2022-10-22T09:05:24.716Z,2.50
2022-10-22T09:10:55.763Z,2.33
2022-10-22T09:16:23.667Z,2.35
2022-10-22T09:21:56.890Z,2.35
2022-10-22T09:27:27.272Z,2.17
2022-10-22T09:32:53.126Z,2.50
2022-10-22T09:38:23.004Z,2.40
2022-10-22T09:43:50.133Z,2.80
2022-10-22T09:49:19.442Z,2.00
2022-10-22T09:54:44.264Z,2.55
2022-10-22T10:00:12.567Z,2.20
2022-10-22T10:05:37.688Z,2.13
2022-10-22T10:11:11.867Z,2.78
2022-10-22T10:16:45.979Z,2.03
2022-10-22T10:22:22.052Z,2.10
2022-10-22T10:27:53.217Z,1.60
2022-10-22T10:33:29.307Z,1.70
2022-10-22T10:39:01.149Z,1.75
2022-10-22T10:44:48.602Z,2.13
2022-10-22T10:50:21.391Z,2.00
2022-10-22T10:55:57.863Z,1.55
2022-10-22T11:01:28.780Z,1.80
2022-10-22T11:07:11.001Z,1.75
2022-10-22T11:12:48.838Z,1.90
2022-10-22T11:18:21.280Z,1.70
2022-10-22T11:23:51.812Z,1.95
2022-10-22T11:29:23.252Z,1.70
2022-10-22T11:34:51.957Z,1.30
2022-10-22T11:40:21.442Z,1.80
2022-10-22T11:45:51.566Z,1.83
2022-10-22T11:51:32.937Z,1.20
2022-10-22T11:57:19.414Z,1.35
2022-10-22T12:02:46.024Z,1.30
2022-10-22T12:08:24.749Z,1.05
2022-10-22T12:14:04.172Z,1.30
2022-10-22T12:19:31.379Z,1.45
2022-10-22T12:24:58.198Z,1.98
2022-10-22T12:30:27.040Z,1.48
2022-10-22T12:35:57.465Z,2.23
2022-10-22T12:41:22.598Z,1.55
2022-10-22T12:46:53.050Z,1.60
2022-10-22T12:52:25.831Z,1.58
2022-10-22T12:57:50.772Z,1.10
2022-10-22T13:03:28.694Z,1.52
2022-10-22T13:09:08.129Z,2.00
2022-10-22T13:14:35.367Z,2.38
2022-10-22T13:20:05.877Z,1.93
2022-10-22T13:25:32.890Z,1.90
2022-10-22T13:31:01.373Z,2.10
2022-10-22T13:36:27.350Z,1.60
2022-10-22T13:41:52.502Z,3.17
2022-10-22T13:47:26.565Z,2.67
2022-10-22T13:52:54.331Z,2.00
2022-10-22T13:58:21.788Z,2.03
2022-10-22T14:03:47.638Z,2.33
2022-10-22T14:09:17.601Z,2.05
2022-10-22T14:14:42.786Z,2.20
2022-10-22T14:20:19.231Z,2.40
2022-10-22T14:25:44.342Z,2.97
2022-10-22T14:31:11.325Z,2.65
2022-10-22T14:36:36.221Z,2.92
2022-10-22T14:42:02.950Z,3.30
2022-10-22T14:47:32.103Z,3.70
2022-10-22T14:53:01.597Z,2.95
2022-10-22T14:58:27.061Z,3.50
2022-10-22T15:03:56.352Z,4.00
2022-10-22T15:09:22.661Z,4.70
2022-10-22T15:14:47.860Z,4.10
2022-10-22T15:20:12.369Z,4.88
2022-10-22T15:25:37.062Z,5.50
2022-10-22T15:31:08.575Z,5.35
2022-10-22T15:36:32.035Z,5.80
2022-10-22T15:47:29.677Z,5.97
2022-10-22T15:52:58.521Z,6.32
2022-10-22T15:58:22.231Z,5.97
2022-10-22T16:03:47.259Z,5.55
2022-10-22T16:09:13.012Z,5.03
2022-10-22T16:14:37.392Z,4.88
2022-10-22T16:20:08.737Z,4.78
2022-10-22T16:25:39.640Z,4.10
2022-10-22T16:31:06.163Z,4.13
2022-10-22T16:36:37.193Z,4.22
2022-10-22T16:42:00.526Z,4.65
2022-10-22T16:47:24.256Z,4.15
2022-10-22T16:52:50.829Z,3.53
2022-10-22T16:58:19.482Z,3.50
2022-10-22T17:03:48.736Z,3.80
2022-10-22T17:09:18.670Z,4.78
2022-10-22T17:14:44.259Z,4.68
2022-10-22T17:20:09.143Z,3.63
2022-10-22T17:25:39.512Z,3.55
2022-10-22T17:31:05.260Z,3.65
2022-10-22T17:36:33.396Z,3.50
2022-10-22T17:42:06.807Z,4.00
2022-10-22T17:47:30.518Z,3.88
2022-10-22T17:52:55.425Z,4.47
2022-10-22T17:58:20.638Z,4.20
2022-10-22T18:03:47.020Z,4.15
2022-10-22T18:09:17.279Z,5.10
2022-10-22T18:14:43.896Z,4.43
2022-10-22T18:20:09.648Z,4.55
2022-10-22T18:25:40.081Z,5.03
2022-10-22T18:31:08.843Z,5.05
2022-10-22T18:36:38.574Z,5.13
2022-10-22T18:42:06.290Z,5.07
2022-10-22T18:47:31.172Z,4.78
2022-10-22T18:52:54.765Z,5.38
2022-10-22T18:58:18.710Z,5.03
2022-10-22T19:03:44.334Z,4.35
2022-10-22T19:09:09.098Z,4.25
2022-10-22T19:14:38.555Z,4.05
2022-10-22T19:20:05.157Z,4.03
2022-10-22T19:25:35.279Z,3.75
2022-10-22T19:31:06.471Z,4.28
2022-10-22T19:36:37.379Z,3.92
2022-10-22T19:42:06.544Z,4.10
2022-10-22T19:47:35.761Z,4.18
2022-10-22T19:53:05.456Z,3.45
2022-10-22T19:58:34.856Z,3.45
2022-10-22T20:04:03.482Z,4.57
2022-10-22T20:09:34.236Z,4.60
2022-10-22T20:15:03.089Z,4.80
2022-10-22T20:20:32.497Z,5.18
2022-10-22T20:26:02.982Z,5.25
2022-10-22T20:31:36.102Z,5.78
2022-10-22T20:37:05.645Z,5.40
2022-10-22T20:42:36.356Z,5.70
2022-10-22T20:48:06.368Z,6.20
2022-10-22T20:53:35.493Z,6.18
2022-10-22T20:59:08.239Z,5.68
2022-10-22T21:04:37.454Z,5.90
2022-10-22T21:10:08.147Z,6.72
2022-10-22T21:15:38.535Z,7.68
2022-10-22T21:21:08.425Z,7.80
2022-10-22T21:26:38.523Z,7.35
2022-10-22T21:32:09.380Z,7.30
2022-10-22T21:37:38.615Z,7.72
2022-10-22T21:43:07.380Z,7.50
2022-10-22T21:48:40.421Z,8.00
2022-10-22T21:54:09.109Z,7.20
2022-10-22T21:59:38.599Z,6.20
2022-10-22T22:05:08.996Z,6.28
2022-10-22T22:10:38.482Z,6.40
2022-10-22T22:16:10.049Z,6.53
2022-10-22T22:21:41.625Z,5.85
2022-10-22T22:27:10.352Z,5.25
2022-10-22T22:32:39.587Z,5.85
2022-10-22T22:38:09.835Z,5.23
2022-10-22T22:49:07.885Z,4.63
2022-10-22T22:54:38.704Z,5.57
2022-10-22T23:00:08.718Z,5.10
2022-10-22T23:05:37.852Z,5.05
2022-10-22T23:11:10.169Z,4.85
2022-10-22T23:16:43.526Z,4.72
2022-10-22T23:22:12.495Z,4.32
2022-10-22T23:27:42.932Z,4.67
2022-10-22T23:33:12.975Z,5.15
2022-10-22T23:38:43.017Z,5.70
2022-10-22T23:44:14.221Z,7.22
2022-10-22T23:49:43.578Z,7.38
2022-10-22T23:55:12.633Z,7.50
